McKean County Weather on FaceBook
Current Metar reports for airports in our Region

Nearby METAR Reports

Metar reports(Meteorological Terminal Aviation Routine) are mainly used by pilots for information on what is happening at their destination during their pre-flight weather briefings and by meteorologists to assist in short term forecasts. A raw Metar is one of the most universal ways to communicate weather information in the world and are usually transmitted by airports, but some come from permanent sanctioned weather observatories.

Listed below are Metars from airports within 100 miles of our station here in Smethport Pa. The first one of course is the Bradford Regional Airport, then the Olean NY airport and so on. Each airport has it's own table to display it's data and at the bottom of the table is 'Raw' Metar for each airport. Most pilots and weather forecasters can look at the raw data and tell you what is up, but we use a script that handles all of the details for us.

KBFD - Bradford, Pennsylvania, USA
Distance from station: NW 7mi, 11km
Updated: Sun, 13-Jun-2021 7:53pm EDT
Thunderstorm, Mostly cloudy
Thunderstorm, Mostly cloudy
 Wind from calm
Wind: Calm
Temperature: 72°F , 22°C
Dew Point: 63°F , 17°C
Humidity: 73%
Barometer: 29.85 inHg , 1010.8 hPa
Summary: Thunderstorm
Clouds: Mostly Cloudy
Visibility: 10 miles , 16 km
Cloud details: Partly Cloudy 6500 ft
Mostly Cloudy 7500 ft
2021/06/13 23:53 KBFD 132353Z AUTO 00000KT 10SM TS SCT065 BKN075 22/17 A2985 RMK AO2 LTG DSNT SE RAE09 TSB52 SLP094 P0000 60001 T02170167 10289 20211 51001
KOLE - Olean, New York, USA
Distance from station: NNE 37mi, 59km
Updated: Sun, 13-Jun-2021 7:55pm EDT
Partly Cloudy
Partly Cloudy
 Wind from NW
Wind: NW 5 mph , 7 km/h
Temperature: 72°F , 22°C
Dew Point: 61°F , 16°C
Humidity: 69%
Barometer: 29.86 inHg , 1011.2 hPa
Clouds: Partly Cloudy
Visibility: 10 miles , 16 km
Cloud details: Partly Cloudy 6000 ft
2021/06/13 23:55 KOLE 132355Z AUTO 31004KT 10SM SCT060 22/16 A2986 RMK AO2 LTG DSNT ALQS
 
KELZ - Wellsville, New York, USA
Distance from station: NE 40mi, 64km
Updated: Sun, 13-Jun-2021 7:56pm EDT
Mostly Cloudy
Mostly Cloudy
 Wind from NW
Wind: NW 6 mph , 9 km/h
Temperature: 73°F , 23°C
Dew Point: 64°F , 18°C
Humidity: 74%
Barometer: 29.85 inHg , 1010.8 hPa
Clouds: Mostly Cloudy
Visibility: 10 miles , 16 km
Cloud details: Mostly Cloudy 8000 ft
2021/06/13 23:56 KELZ 132356Z AUTO 32005KT 10SM BKN080 23/18 A2985 RMK AO2 LTG DSNT E AND SE SLP096 60001 T02330178 10272 20222 55006 $
KDUJ - Du Bois, Pennsylvania, USA
Distance from station: SSW 42mi, 68km
Updated: Sun, 13-Jun-2021 7:53pm EDT
Clear
Clear
 Wind from WNW
Wind: WNW 7 mph , 11 km/h
Temperature: 77°F , 25°C
Dew Point: 63°F , 17°C
Humidity: 61%
Barometer: 29.83 inHg , 1010.2 hPa
Clouds: Clear
Visibility: 10 miles , 16 km
2021/06/13 23:53 KDUJ 132353Z AUTO 29006KT 10SM CLR 25/17 A2983 RMK AO2 LTG DSNT NE SLP089 T02500172 10289 20250 56004 $
 
KJHW - Jamestown, New York, USA
Distance from station: NW 46mi, 75km
Updated: Sun, 13-Jun-2021 7:56pm EDT
Partly Cloudy
Partly Cloudy
 Wind from W
Wind: W 12 mph , 19 km/h, Gust: 17 mph , 28 km/h
Temperature: 72°F , 22°C
Dew Point: 64°F , 18°C
Humidity: 78%
Barometer: 29.86 inHg , 1011.2 hPa
Clouds: Partly Cloudy
Visibility: 10 miles , 16 km
Cloud details: Partly Cloudy 6500 ft
2021/06/13 23:56 KJHW 132356Z AUTO 26010G15KT 200V320 10SM SCT065 22/18 A2986 RMK AO2 SLP107 T02170178 10267 20217 53002
KFIG - Clearfield, Pennsylvania, USA
Distance from station: S 47mi, 75km
Updated: Sun, 13-Jun-2021 7:54pm EDT
Clear
Clear
 Wind from ENE
Wind: ENE 7 mph , 11 km/h
Temperature: 75°F , 24°C
Dew Point: 63°F , 17°C
Humidity: 65%
Barometer: 29.83 inHg , 1010.2 hPa
Clouds: Clear
Visibility: 10 miles , 16 km
2021/06/13 23:54 KFIG 132354Z AUTO 06006KT 10SM CLR 24/17 A2983 RMK AO2 LTG DSNT N-SE SLP091 T02440167 10294 20244 55001
 
KDKK - Dunkirk, New York, USA
Distance from station: NW 66mi, 106km
Updated: Sun, 13-Jun-2021 7:53pm EDT
Mostly Cloudy
Mostly Cloudy
 Wind from SW
Wind: SW 13 mph , 20 km/h
Temperature: 75°F , 24°C
Dew Point: 64°F , 18°C
Humidity: 69%
Barometer: 29.80 inHg , 1009.1 hPa
Clouds: Mostly Cloudy
Visibility: 10 miles , 16 km
Cloud details: Few Clouds 4100 ft
Mostly Cloudy 10000 ft
2021/06/13 23:53 KDKK 132353Z AUTO 22011KT 10SM FEW041 BKN100 24/18 A2980 RMK AO2 SLP087 T02390183 10272 20239 55004 $
KUNV - State College, Pennsylvania, USA
Distance from station: SSE 71mi, 114km
Updated: Sun, 13-Jun-2021 8:10pm EDT
Heavy rain, Mist, Overcast
Heavy rain, Mist, Overcast
 Wind from NNW
Wind: NNW 12 mph , 19 km/h
Temperature: 72°F , 22°C
Dew Point: 72°F , 22°C
Humidity: 100%
Barometer: 29.86 inHg , 1011.2 hPa
Summary: Heavy rain, Mist
Clouds: Overcast
Visibility: 2 miles , 3 km
Cloud details: Partly Cloudy 1300 ft
Overcast 2300 ft
2021/06/14 00:10 KUNV 140010Z 33010KT 2SM +RA BR SCT013 OVC023 22/22 A2986
 
KFKL - Franklin, Pennsylvania, USA
Distance from station: WSW 72mi, 116km
Updated: Sun, 13-Jun-2021 7:56pm EDT
Overcast
Overcast
 Wind from WNW
Wind: WNW 9 mph , 15 km/h
Temperature: 72°F , 22°C
Dew Point: 66°F , 19°C
Humidity: 83%
Barometer: 29.88 inHg , 1011.9 hPa
Clouds: Overcast
Visibility: 8 miles , 13 km
Cloud details: Few Clouds 2200 ft
Mostly Cloudy 4000 ft
Overcast 4900 ft
2021/06/13 23:56 KFKL 132356Z AUTO 30008KT 8SM FEW022 BKN040 OVC049 22/19 A2988 RMK AO2 SLP110 6//// T02220189 10283 20200 53005
KDSV - Dansville, New York, USA
Distance from station: NE 73mi, 117km
Updated: Sun, 13-Jun-2021 7:54pm EDT
Clear
Clear
 Wind from calm
Wind: Calm
Temperature: 81°F , 27°C
Heat Index: 82°F , 28°C
Dew Point: 61°F , 16°C
Humidity: 51%
Barometer: 29.76 inHg , 1007.8 hPa
Clouds: Clear
Visibility: 10 miles , 16 km
2021/06/13 23:54 KDSV 132354Z AUTO 00000KT 10SM CLR 27/16 A2976 RMK AO2 SLP082 T02670156 10311 20267 55012
 
KIDI - Indiana/Stewart, Pennsylvania, USA
Distance from station: SSW 81mi, 130km
Updated: Sun, 13-Jun-2021 7:55pm EDT
Clear
Clear
 Wind from WSW
Wind: WSW 10 mph , 17 km/h
Temperature: 75°F , 24°C
Dew Point: 68°F , 20°C
Humidity: 78%
Barometer: 29.87 inHg , 1011.5 hPa
Clouds: Clear
Visibility: 10 miles , 16 km
2021/06/13 23:55 KIDI 132355Z AUTO 24009KT 10SM CLR 24/20 A2987 RMK A01
KBUF - Buffalo/Cheektow, New York, USA
Distance from station: N 84mi, 136km
Updated: Sun, 13-Jun-2021 7:54pm EDT
Mostly Cloudy
Mostly Cloudy
 Wind from W
Wind: W 13 mph , 20 km/h
Temperature: 73°F , 23°C
Dew Point: 63°F , 17°C
Humidity: 69%
Barometer: 29.78 inHg , 1008.5 hPa
Clouds: Mostly Cloudy
Visibility: 10 miles , 16 km
Cloud details: Few Clouds 4000 ft
Partly Cloudy 7000 ft
Partly Cloudy 10000 ft
Mostly Cloudy 15000 ft
Mostly Cloudy 20000 ft
Mostly Cloudy 25000 ft
2021/06/13 23:54 KBUF 132354Z 27011KT 10SM FEW040 SCT070 SCT100 BKN150 BKN200 BKN250 23/17 A2978 RMK AO2 LTG DSNT W AND NW SLP082 CB DSNT NW MOV SE T02330172 10289 20233 55005 $
 
KGKJ - Meadville, Pennsylvania, USA
Distance from station: W 86mi, 138km
Updated: Sun, 13-Jun-2021 7:53pm EDT
Mostly Cloudy
Mostly Cloudy
 Wind from NW
Wind: NW 7 mph , 11 km/h
Temperature: 72°F , 22°C
Dew Point: 63°F , 17°C
Humidity: 73%
Barometer: 29.88 inHg , 1011.9 hPa
Clouds: Mostly Cloudy
Visibility: 10 miles , 16 km
Cloud details: Few Clouds 2200 ft
Mostly Cloudy 4200 ft
2021/06/13 23:53 KGKJ 132353Z AUTO 32006KT 10SM FEW022 BKN042 22/17 A2988 RMK AO2 SLP109 T02220172 10283 20222 53008
KERI - Erie, Pennsylvania, USA
Distance from station: WNW 87mi, 140km
Updated: Sun, 13-Jun-2021 7:51pm EDT
Clear
Clear
 Wind from WSW
Wind: WSW 9 mph , 15 km/h
Temperature: 73°F , 23°C
Dew Point: 59°F , 15°C
Humidity: 61%
Barometer: 29.83 inHg , 1010.2 hPa
Clouds: Clear
Visibility: 10 miles , 16 km
2021/06/13 23:51 KERI 132351Z 24008KT 10SM CLR 23/15 A2983 RMK AO2 SLP098 T02330150 10267 20233 55001
 
KELM - Elmira, New York, USA
Distance from station: ENE 90mi, 145km
Updated: Sun, 13-Jun-2021 7:53pm EDT
Clear
Clear
 Wind from S
Wind: S 8 mph , 13 km/h
Temperature: 79°F , 26°C
Dew Point: 64°F , 18°C
Humidity: 61%
Barometer: 29.77 inHg , 1008.1 hPa
Clouds: Clear
Visibility: 10 miles , 16 km
2021/06/13 23:53 KELM 132353Z 17007KT 10SM CLR 26/18 A2977 RMK AO2 SLP075 T02560183 10306 20256 56010
KIPT - Williamsport, Pennsylvania, USA
Distance from station: ESE 91mi, 146km
Updated: Sun, 13-Jun-2021 7:54pm EDT
Mostly Cloudy
Mostly Cloudy
 Wind from S
Wind: S 14 mph , 22 km/h, Gust: 23 mph , 37 km/h
Temperature: 75°F , 24°C
Dew Point: 64°F , 18°C
Humidity: 69%
Barometer: 29.79 inHg , 1008.8 hPa
Clouds: Mostly Cloudy
Visibility: 10 miles , 16 km
Cloud details: Partly Cloudy 5000 ft
Mostly Cloudy 10000 ft
2021/06/13 23:54 KIPT 132354Z 18012G20KT 10SM SCT050 BKN100 24/18 A2979 RMK AO2 SLP083 60000 T02390183 10272 20239 56010
 
KBTP - Butler Co., Pennsylvania, USA
Distance from station: SW 98mi, 157km
Updated: Sun, 13-Jun-2021 7:56pm EDT
Clear
Clear
 Wind from SW
Wind: SW 6 mph , 9 km/h
Temperature: 70°F , 21°C
Dew Point: 66°F , 19°C
Humidity: 88%
Barometer: 29.88 inHg , 1011.9 hPa
Clouds: Clear
Visibility: 10 miles , 16 km
2021/06/13 23:56 KBTP 132356Z AUTO 22005KT 10SM CLR 21/19 A2988 RMK AO2 SLP116 6//// T02110194 10294 20211 53017 $
KAOO - Altoona, Pennsylvania, USA
Distance from station: S 99mi, 159km
Updated: Sun, 13-Jun-2021 7:53pm EDT
Clear
Clear
 Wind from S
Wind: S 8 mph , 13 km/h
Temperature: 73°F , 23°C
Dew Point: 64°F , 18°C
Humidity: 74%
Barometer: 29.83 inHg , 1010.2 hPa
Clouds: Clear
Visibility: 10 miles , 16 km
2021/06/13 23:53 KAOO 132353Z AUTO 19007KT 10SM CLR 23/18 A2983 RMK AO2 SLP093 T02280183 10272 20228 55009
 
KPIT - Pittsburg, Pennsylvania, USA
Distance from station: SSW 126mi, 203km
Updated: Sun, 13-Jun-2021 7:51pm EDT
Light rain, Overcast
Light rain, Overcast
 Wind from S
Wind: S 7 mph , 11 km/h
Temperature: 70°F , 21°C
Dew Point: 66°F , 19°C
Humidity: 88%
Barometer: 29.86 inHg , 1011.2 hPa
Summary: Light Rain
Clouds: Overcast
Visibility: 10 miles , 16 km
Cloud details: Few Clouds 2000 ft
Mostly Cloudy 3900 ft
Mostly Cloudy 5000 ft
Overcast 13000 ft
2021/06/13 23:51 KPIT 132351Z 19006KT 10SM -RA FEW020 BKN039 BKN050 OVC130 21/19 A2986 RMK AO2 LTG DSNT SE RAB27 TSE01B02E37 SLP113 P0000 60041 T02060189 10306 20200 52017 $
KCLE - Cleveland, Ohio, USA
Distance from station: WSW 160mi, 258km
Updated: Sun, 13-Jun-2021 7:51pm EDT
Few Clouds
Few Clouds
 Wind from NE
Wind: NE 9 mph , 15 km/h
Temperature: 75°F , 24°C
Dew Point: 61°F , 16°C
Humidity: 61%
Barometer: 29.86 inHg , 1011.2 hPa
Clouds: Few Clouds
Visibility: 10 miles , 16 km
Cloud details: Few Clouds 5000 ft
2021/06/13 23:51 KCLE 132351Z 04008KT 10SM FEW050 24/16 A2986 RMK AO2 SLP122 T02440156 10267 20239 53005